Time;durP1;ratioP1;P1;durP2;ratioP2;P2;SDS_P1;SDS_P2;PMS_P1;PMS_P2;Temp;Humidity;BMP_temperature;BMP_pressure;BME280_temperature;BME280_humidity;BME280_pressure;Samples;Min_cycle;Max_cycle;Signal;HPM_P1;HPM_P2
2022/10/16 00:01:11;;;;;;;;;;;;;;;14.78;100.00;98340.00;1748803;80;25351;-89
2022/10/16 00:03:41;;;;;;;;;;;;;;;14.76;100.00;98340.13;1746723;80;20241;-88
2022/10/16 00:06:17;;;;;;;;;;;;;;;14.71;100.00;98338.39;1753327;80;24559;-89
2022/10/16 00:08:43;;;;;;;;;;;;;;;14.64;100.00;98346.47;1747769;80;22669;-89
2022/10/16 00:11:16;;;;;;;;;;;;;;;14.61;100.00;98355.49;1817864;78;26048;-88
2022/10/16 00:13:43;;;;;;;;;;;;;;;14.61;100.00;98348.91;1813425;78;24702;-89
2022/10/16 00:16:11;;;;;;;;;;;;;;;14.63;100.00;98356.66;1809160;78;20245;-89
2022/10/16 00:18:46;;;;;;;;;;;;;;;14.62;100.00;98356.30;1812936;78;25418;-89
2022/10/16 00:21:20;;;;;;;;;;;;;;;14.57;100.00;98358.50;1810599;78;22007;-90
2022/10/16 00:23:46;;;;;;;;;;;;;;;14.56;100.00;98358.18;1818126;77;25968;-90
2022/10/16 00:26:14;;;;;;;;;;;;;;;14.54;100.00;98359.62;1816771;77;24462;-90
2022/10/16 00:28:42;;;;;;;;;;;;;;;14.55;100.00;98358.66;1783428;79;20212;-87
2022/10/16 00:31:10;;;;;;;;;;;;;;;14.56;100.00;98363.45;1754360;80;24730;-84
2022/10/16 00:33:36;;;;;;;;;;;;;;;14.56;100.00;98360.30;1749402;79;22054;-84
2022/10/16 00:36:03;;;;;;;;;;;;;;;14.59;100.00;98359.22;1738302;79;26016;-83
2022/10/16 00:38:29;;;;;;;;;;;;;;;14.60;100.00;98355.14;1745851;79;24459;-89
2022/10/16 00:40:55;;;;;;;;;;;;;;;14.62;100.00;98359.77;1728953;81;20278;-89
2022/10/16 00:43:40;;;;;;;;;;;;;;;14.63;100.00;98364.08;1734378;81;20228;-89
2022/10/16 00:46:08;;;;;;;;;;;;;;;14.65;100.00;98367.42;1753840;81;22110;-89
2022/10/16 00:48:33;;;;;;;;;;;;;;;14.65;100.00;98367.90;1749660;80;26193;-90
2022/10/16 00:51:01;;;;;;;;;;;;;;;14.65;100.00;98366.10;1720811;81;21398;-90
2022/10/16 00:53:33;;;;;;;;;;;;;;;14.68;100.00;98361.03;1748347;81;20915;-89
2022/10/16 00:55:59;;;;;;;;;;;;;;;14.70;100.00;98367.02;1761905;80;24783;-89
2022/10/16 00:58:25;;;;;;;;;;;;;;;14.68;100.00;98360.20;1771419;79;22086;-89
2022/10/16 01:00:51;;;;;;;;;;;;;;;14.69;100.00;98363.19;1745416;80;21017;-84
2022/10/16 01:03:35;;;;;;;;;;;;;;;14.67;100.00;98365.14;1815565;77;20240;-84
2022/10/16 01:06:23;;;;;;;;;;;;;;;14.67;100.00;98363.83;1771849;79;20196;-84
2022/10/16 01:08:54;;;;;;;;;;;;;;;14.63;100.00;98364.55;1752957;80;24567;-85
2022/10/16 01:11:22;;;;;;;;;;;;;;;14.65;100.00;98364.78;1770490;79;22092;-85
2022/10/16 01:13:59;;;;;;;;;;;;;;;14.65;100.00;98363.95;1774334;79;26365;-84
2022/10/16 01:16:28;;;;;;;;;;;;;;;14.65;100.00;98364.78;1779754;79;24440;-85
2022/10/16 01:19:07;;;;;;;;;;;;;;;14.62;100.00;98358.94;1776932;79;20375;-85
2022/10/16 01:21:35;;;;;;;;;;;;;;;14.61;100.00;98355.49;1775774;79;24553;-85
2022/10/16 01:24:21;;;;;;;;;;;;;;;14.63;100.00;98356.17;1778484;79;22088;-84
2022/10/16 01:29:51;;;;;;;;;;;;;;;14.64;100.00;98354.37;1772889;79;24512;-85
2022/10/16 01:32:19;;;;;;;;;;;;;;;14.64;100.00;98351.74;1770560;79;20234;-85
2022/10/16 01:34:48;;;;;;;;;;;;;;;14.63;100.00;98349.59;1777519;79;24621;-84
2022/10/16 01:37:16;;;;;;;;;;;;;;;14.60;100.00;98349.03;1777661;79;22091;-84
2022/10/16 01:39:44;;;;;;;;;;;;;;;14.57;100.00;98342.70;1773096;79;26106;-84
2022/10/16 01:42:21;;;;;;;;;;;;;;;14.52;100.00;98360.22;1775873;79;24483;-85
2022/10/16 01:44:57;;;;;;;;;;;;;;;14.53;100.00;98363.22;1775329;79;20336;-85
2022/10/16 01:47:25;;;;;;;;;;;;;;;14.53;100.00;98359.27;1775548;79;24267;-85
2022/10/16 01:49:52;;;;;;;;;;;;;;;14.55;100.00;98363.09;1775460;79;22160;-84
2022/10/16 01:52:20;;;;;;;;;;;;;;;14.55;100.00;98356.50;1773307;79;26194;-87
2022/10/16 01:54:49;;;;;;;;;;;;;;;14.56;100.00;98361.62;1740968;81;25340;-89
2022/10/16 01:57:17;;;;;;;;;;;;;;;14.57;100.00;98357.19;1727156;81;20235;-89
2022/10/16 01:59:45;;;;;;;;;;;;;;;14.54;100.00;98366.20;1775165;79;24714;-89
2022/10/16 02:02:14;;;;;;;;;;;;;;;14.53;100.00;98365.84;1773373;79;22623;-89
2022/10/16 02:04:42;;;;;;;;;;;;;;;14.54;100.00;98362.73;1775708;79;27157;-89
2022/10/16 02:07:08;;;;;;;;;;;;;;;14.51;100.00;98372.23;1770720;79;24523;-89
2022/10/16 02:09:34;;;;;;;;;;;;;;;14.48;100.00;98373.31;1784950;78;20255;-89
2022/10/16 02:12:09;;;;;;;;;;;;;;;14.49;100.00;98376.78;1807230;77;25196;-90
2022/10/16 02:14:41;;;;;;;;;;;;;;;14.44;100.00;98377.67;1814408;77;21938;-90
2022/10/16 02:17:15;;;;;;;;;;;;;;;14.43;100.00;98382.58;1819444;77;25947;-90
2022/10/16 02:19:41;;;;;;;;;;;;;;;14.44;100.00;98394.30;1815909;77;25295;-89
2022/10/16 02:22:09;;;;;;;;;;;;;;;14.44;100.00;98394.30;1813328;77;20219;-89
2022/10/16 02:24:40;;;;;;;;;;;;;;;14.46;100.00;98392.83;1817616;77;24138;-91
2022/10/16 02:27:24;;;;;;;;;;;;;;;14.49;100.00;98395.22;1815233;77;22719;-90
2022/10/16 02:29:58;;;;;;;;;;;;;;;14.48;100.00;98395.70;1817284;77;26044;-90
2022/10/16 02:32:30;;;;;;;;;;;;;;;14.45;100.00;98407.83;1815219;77;24451;-90
2022/10/16 02:34:59;;;;;;;;;;;;;;;14.45;100.00;98408.31;1799592;77;20291;-90
2022/10/16 02:37:27;;;;;;;;;;;;;;;14.45;100.00;98409.14;1816312;77;25303;-89
2022/10/16 02:39:58;;;;;;;;;;;;;;;14.46;100.00;98413.42;1815116;77;21944;-89
2022/10/16 02:42:35;;;;;;;;;;;;;;;14.47;100.00;98398.45;1816431;77;26782;-90
2022/10/16 02:45:03;;;;;;;;;;;;;;;14.49;100.00;98406.59;1814889;77;25246;-88
2022/10/16 02:47:35;;;;;;;;;;;;;;;14.51;100.00;98413.05;1812972;77;20208;-88
2022/10/16 02:50:01;;;;;;;;;;;;;;;14.47;100.00;98405.88;1813747;77;24525;-88
2022/10/16 02:52:28;;;;;;;;;;;;;;;14.44;100.00;98406.63;1819447;77;20385;-88
2022/10/16 02:54:54;;;;;;;;;;;;;;;14.39;100.00;98403.08;1815817;77;25964;-88
2022/10/16 02:57:20;;;;;;;;;;;;;;;14.38;100.00;98408.47;1815906;77;24407;-88
2022/10/16 02:59:46;;;;;;;;;;;;;;;14.35;100.00;98411.31;1816242;77;20232;-85
2022/10/16 03:02:14;;;;;;;;;;;;;;;14.33;100.00;98403.58;1813119;78;20723;-85
2022/10/16 03:04:40;;;;;;;;;;;;;;;14.31;100.00;98396.28;1815629;77;22061;-88
2022/10/16 03:07:08;;;;;;;;;;;;;;;14.32;100.00;98404.53;1816463;77;21242;-88
2022/10/16 03:09:34;;;;;;;;;;;;;;;14.32;100.00;98400.58;1816126;77;25219;-88
2022/10/16 03:12:00;;;;;;;;;;;;;;;14.33;100.00;98406.69;1817014;77;20326;-88
2022/10/16 03:14:26;;;;;;;;;;;;;;;14.34;100.00;98405.25;1818898;77;24602;-90
2022/10/16 03:16:52;;;;;;;;;;;;;;;14.35;100.00;98404.73;1827400;77;20298;-89
2022/10/16 03:19:21;;;;;;;;;;;;;;;14.34;100.00;98403.93;1823925;77;20994;-90
2022/10/16 03:21:59;;;;;;;;;;;;;;;14.33;100.00;98411.47;1808623;77;26624;-89
2022/10/16 03:24:25;;;;;;;;;;;;;;;14.32;100.00;98403.70;1818821;77;20162;-89
2022/10/16 03:26:51;;;;;;;;;;;;;;;14.34;100.00;98411.83;1821155;77;24577;-89
2022/10/16 03:29:17;;;;;;;;;;;;;;;14.34;100.00;98403.09;1821991;77;20267;-89
2022/10/16 03:31:43;;;;;;;;;;;;;;;14.34;100.00;98400.46;1822260;77;21013;-89
2022/10/16 03:34:09;;;;;;;;;;;;;;;14.32;100.00;98406.33;1820372;77;20270;-89
2022/10/16 03:36:35;;;;;;;;;;;;;;;14.33;100.00;98406.20;1821034;77;20220;-89
2022/10/16 03:39:10;;;;;;;;;;;;;;;14.34;100.00;98409.67;1822725;77;20323;-89
2022/10/16 03:41:36;;;;;;;;;;;;;;;14.32;100.00;98411.59;1823351;77;22067;-89
2022/10/16 03:44:02;;;;;;;;;;;;;;;14.32;100.00;98419.02;1828779;77;26032;-89
2022/10/16 03:46:28;;;;;;;;;;;;;;;14.34;100.00;98410.99;1825318;77;20341;-89
2022/10/16 03:48:55;;;;;;;;;;;;;;;14.34;100.00;98420.20;1821093;77;20236;-89
2022/10/16 03:51:24;;;;;;;;;;;;;;;14.34;100.00;98424.99;1739873;80;20764;-89
2022/10/16 03:53:50;;;;;;;;;;;;;;;14.36;100.00;98419.09;1767274;79;22029;-89
2022/10/16 03:56:17;;;;;;;;;;;;;;;14.36;100.00;98420.89;1766212;79;21034;-89
2022/10/16 03:58:43;;;;;;;;;;;;;;;14.34;100.00;98419.73;1766960;80;24498;-89
2022/10/16 04:01:10;;;;;;;;;;;;;;;14.35;100.00;98431.06;1764327;79;20801;-89
2022/10/16 04:03:36;;;;;;;;;;;;;;;14.35;100.00;98424.00;1786317;79;24702;-90
2022/10/16 04:06:02;;;;;;;;;;;;;;;14.33;100.00;98427.27;1766295;80;22190;-90
2022/10/16 04:08:36;;;;;;;;;;;;;;;14.31;100.00;98436.25;1773100;80;20841;-89
2022/10/16 04:11:05;;;;;;;;;;;;;;;14.30;100.00;98428.83;1752962;80;20191;-90
2022/10/16 04:13:31;;;;;;;;;;;;;;;14.29;100.00;98425.03;1778219;79;20172;-90
2022/10/16 04:15:57;;;;;;;;;;;;;;;14.24;100.00;98420.97;1779654;79;20295;-90
2022/10/16 04:18:29;;;;;;;;;;;;;;;14.22;100.00;98428.18;1745599;81;21887;-90
2022/10/16 04:20:55;;;;;;;;;;;;;;;14.20;100.00;98424.83;1776804;79;26168;-89
2022/10/16 04:23:22;;;;;;;;;;;;;;;14.21;100.00;98429.62;1781372;79;24408;-90
2022/10/16 04:25:50;;;;;;;;;;;;;;;14.20;100.00;98431.89;1784505;79;21185;-89
2022/10/16 04:28:16;;;;;;;;;;;;;;;14.22;100.00;98424.23;1784623;79;24802;-89
2022/10/16 04:30:42;;;;;;;;;;;;;;;14.24;100.00;98425.39;1777093;78;20216;-89
2022/10/16 04:33:09;;;;;;;;;;;;;;;14.23;100.00;98427.22;1781595;79;26043;-89
2022/10/16 04:35:35;;;;;;;;;;;;;;;14.21;100.00;98426.51;1781690;79;24484;-90
2022/10/16 04:38:01;;;;;;;;;;;;;;;14.21;100.00;98429.14;1779972;79;20263;-89
2022/10/16 04:40:28;;;;;;;;;;;;;;;14.23;100.00;98431.66;1754640;80;24567;-90
2022/10/16 04:42:59;;;;;;;;;;;;;;;14.25;100.00;98429.70;1751490;80;21965;-89
2022/10/16 04:45:25;;;;;;;;;;;;;;;14.27;100.00;98435.69;1747866;80;26092;-88
2022/10/16 04:47:56;;;;;;;;;;;;;;;14.27;100.00;98433.05;1764814;80;20815;-88
2022/10/16 04:50:22;;;;;;;;;;;;;;;14.27;100.00;98427.78;1758370;80;20472;-88
2022/10/16 04:52:48;;;;;;;;;;;;;;;14.26;100.00;98431.37;1767017;80;20766;-88
2022/10/16 04:55:14;;;;;;;;;;;;;;;14.26;100.00;98436.64;1768802;80;20256;-88
2022/10/16 04:57:40;;;;;;;;;;;;;;;14.25;100.00;98436.28;1761375;79;21008;-88
2022/10/16 05:00:10;;;;;;;;;;;;;;;14.25;100.00;98439.75;1765246;79;24495;-87
2022/10/16 05:02:36;;;;;;;;;;;;;;;14.29;100.00;98455.30;1747966;81;20446;-90
2022/10/16 05:05:03;;;;;;;;;;;;;;;14.32;100.00;98440.08;1765704;80;24818;-90
2022/10/16 05:07:29;;;;;;;;;;;;;;;14.37;100.00;98444.50;1780203;79;21969;-90
2022/10/16 05:09:55;;;;;;;;;;;;;;;14.40;100.00;98440.78;1767233;80;20971;-90
2022/10/16 05:12:21;;;;;;;;;;;;;;;14.41;100.00;98443.27;1755383;80;20323;-90
2022/10/16 05:14:46;;;;;;;;;;;;;;;14.36;100.00;98445.42;1773113;80;20287;-85
2022/10/16 05:17:12;;;;;;;;;;;;;;;14.36;100.00;98444.11;1775463;80;20764;-85
2022/10/16 05:19:38;;;;;;;;;;;;;;;14.39;100.00;98447.01;1779453;79;20311;-85
2022/10/16 05:22:04;;;;;;;;;;;;;;;14.37;100.00;98452.39;1774679;80;21067;-85
2022/10/16 05:24:30;;;;;;;;;;;;;;;14.40;100.00;98452.13;1771030;80;20256;-90
2022/10/16 05:26:58;;;;;;;;;;;;;;;14.46;100.00;98457.34;1782892;80;20265;-85
2022/10/16 05:29:24;;;;;;;;;;;;;;;14.46;100.00;98452.08;1752511;79;24495;-85
2022/10/16 05:31:51;;;;;;;;;;;;;;;14.43;100.00;98454.52;1782381;79;20929;-85
2022/10/16 05:34:17;;;;;;;;;;;;;;;14.44;100.00;98453.55;1758460;81;26830;-85
2022/10/16 05:36:45;;;;;;;;;;;;;;;14.50;100.00;98453.03;1722267;81;20280;-85
2022/10/16 05:39:11;;;;;;;;;;;;;;;14.51;100.00;98452.04;1758562;81;20206;-85
2022/10/16 05:41:37;;;;;;;;;;;;;;;14.55;100.00;98465.32;1772676;79;24549;-85
2022/10/16 05:44:06;;;;;;;;;;;;;;;14.54;100.00;98466.76;1775214;79;22033;-88
2022/10/16 05:46:32;;;;;;;;;;;;;;;14.51;100.00;98459.94;1778856;79;26053;-89
2022/10/16 05:48:58;;;;;;;;;;;;;;;14.46;100.00;98466.08;1774754;79;24437;-89
2022/10/16 05:51:24;;;;;;;;;;;;;;;14.49;100.00;98471.59;1774055;79;20343;-89
2022/10/16 05:53:50;;;;;;;;;;;;;;;14.50;100.00;98474.58;1773704;79;25292;-89
2022/10/16 05:56:16;;;;;;;;;;;;;;;14.51;100.00;98479.69;1773658;79;21935;-87
2022/10/16 05:58:44;;;;;;;;;;;;;;;14.53;100.00;98483.52;1780289;79;21048;-84
2022/10/16 06:01:14;;;;;;;;;;;;;;;14.54;100.00;98478.13;1775124;79;25252;-84
2022/10/16 06:03:42;;;;;;;;;;;;;;;14.56;100.00;98486.72;1755673;81;20500;-84
2022/10/16 06:06:10;;;;;;;;;;;;;;;14.60;100.00;98490.78;1742500;81;38998;-85
2022/10/16 06:08:37;;;;;;;;;;;;;;;14.64;100.00;98485.59;1752580;81;22037;-88
2022/10/16 06:11:04;;;;;;;;;;;;;;;14.67;100.00;98487.62;1753751;80;26697;-89
2022/10/16 06:13:30;;;;;;;;;;;;;;;14.73;100.00;98504.23;1785807;79;24539;-89
2022/10/16 06:15:58;;;;;;;;;;;;;;;14.75;100.00;98499.16;1774021;80;20867;-89
2022/10/16 06:18:27;;;;;;;;;;;;;;;14.80;100.00;98499.59;1756356;79;20585;-88
2022/10/16 06:20:53;;;;;;;;;;;;;;;14.83;100.00;98505.94;1786293;79;22073;-89
2022/10/16 06:23:19;;;;;;;;;;;;;;;14.88;100.00;98505.54;1754512;81;26031;-89
2022/10/16 06:25:45;;;;;;;;;;;;;;;14.97;100.00;98516.11;1773414;79;20238;-89
2022/10/16 06:28:20;;;;;;;;;;;;;;;15.09;100.00;98522.13;1759130;80;20306;-89
2022/10/16 06:30:55;;;;;;;;;;;;;;;15.17;100.00;98521.44;1762558;79;24304;-89
2022/10/16 06:33:21;;;;;;;;;;;;;;;15.21;100.00;98525.02;1785308;79;21967;-89
2022/10/16 06:35:47;;;;;;;;;;;;;;;15.30;100.00;98524.69;1750696;80;21196;-88
2022/10/16 06:38:13;;;;;;;;;;;;;;;15.39;100.00;98526.51;1750179;80;20318;-89
2022/10/16 06:40:40;;;;;;;;;;;;;;;15.47;100.00;98540.70;1754955;80;20237;-88
2022/10/16 06:43:06;;;;;;;;;;;;;;;15.49;100.00;98540.06;1808825;77;24773;-88
2022/10/16 06:45:32;;;;;;;;;;;;;;;15.55;100.00;98546.64;1809653;77;22065;-89
2022/10/16 06:47:58;;;;;;;;;;;;;;;15.61;100.00;98546.58;1783354;79;26093;-89
2022/10/16 06:50:24;;;;;;;;;;;;;;;15.64;100.00;98545.01;1774965;79;20871;-89
2022/10/16 06:52:50;;;;;;;;;;;;;;;15.63;100.00;98551.25;1776486;79;20559;-88
2022/10/16 06:55:16;;;;;;;;;;;;;;;15.65;100.00;98557.23;1745772;81;20325;-88
2022/10/16 06:57:43;;;;;;;;;;;;;;;15.69;100.00;98555.98;1767110;80;21959;-88
2022/10/16 07:00:10;;;;;;;;;;;;;;;15.70;100.00;98561.62;1752407;80;25636;-88
2022/10/16 07:02:36;;;;;;;;;;;;;;;15.75;100.00;98559.40;1778394;79;24669;-88
2022/10/16 07:05:04;;;;;;;;;;;;;;;15.77;100.00;98565.36;1772957;79;20322;-85
2022/10/16 07:07:31;;;;;;;;;;;;;;;15.84;100.00;98562.53;1776272;79;24604;-89
2022/10/16 07:10:03;;;;;;;;;;;;;;;15.89;100.00;98558.99;1777827;79;21967;-89
2022/10/16 07:12:29;;;;;;;;;;;;;;;15.90;100.00;98559.34;1768768;79;26061;-88
2022/10/16 07:14:56;;;;;;;;;;;;;;;15.92;100.00;98563.17;1765848;79;24530;-88
2022/10/16 07:17:22;;;;;;;;;;;;;;;15.97;100.00;98559.16;1764614;79;20478;-88
2022/10/16 07:19:49;;;;;;;;;;;;;;;15.94;100.00;98564.69;1755567;80;24711;-88
2022/10/16 07:22:15;;;;;;;;;;;;;;;15.92;100.00;98570.61;1759971;81;22771;-88
2022/10/16 07:24:41;;;;;;;;;;;;;;;15.94;100.00;98571.29;1761308;81;21743;-87
2022/10/16 07:27:06;;;;;;;;;;;;;;;16.03;100.00;98579.72;1764744;79;20240;-88
2022/10/16 07:29:32;;;;;;;;;;;;;;;16.08;100.00;98583.27;1746680;81;20316;-88
2022/10/16 07:32:05;;;;;;;;;;;;;;;16.13;100.00;98579.23;1774969;79;20734;-88
2022/10/16 07:34:29;;;;;;;;;;;;;;;16.17;100.00;98580.63;1777187;79;21968;-88
2022/10/16 07:36:55;;;;;;;;;;;;;;;16.20;100.00;98583.48;1777892;79;20962;-88
2022/10/16 07:39:21;;;;;;;;;;;;;;;16.27;100.00;98578.81;1774887;79;20275;-88
2022/10/16 07:41:47;;;;;;;;;;;;;;;16.38;100.00;98583.60;1776689;79;20269;-89
2022/10/16 07:44:15;;;;;;;;;;;;;;;16.42;100.00;98590.30;1777195;79;21053;-88
2022/10/16 07:46:41;;;;;;;;;;;;;;;16.47;100.00;98593.35;1770949;79;21923;-88
2022/10/16 07:49:08;;;;;;;;;;;;;;;16.49;100.00;98590.06;1772196;79;25964;-89
2022/10/16 07:51:34;;;;;;;;;;;;;;;16.50;100.00;98588.61;1777802;79;24625;-89
2022/10/16 07:54:00;;;;;;;;;;;;;;;16.53;100.00;98598.88;1775825;79;20815;-89
2022/10/16 07:56:26;;;;;;;;;;;;;;;16.57;100.00;98603.42;1777371;79;20214;-89
2022/10/16 07:58:52;;;;;;;;;;;;;;;16.58;100.00;98600.61;1773320;79;20882;-89
2022/10/16 08:01:18;;;;;;;;;;;;;;;16.64;100.00;98606.69;1774107;79;20387;-90
2022/10/16 08:03:48;;;;;;;;;;;;;;;16.67;100.00;98601.14;1757145;80;24426;-89
2022/10/16 08:06:12;;;;;;;;;;;;;;;16.65;100.00;98606.20;1739790;81;20291;-89
2022/10/16 08:08:38;;;;;;;;;;;;;;;16.60;100.00;98601.35;1731303;81;24636;-89
2022/10/16 08:11:04;;;;;;;;;;;;;;;16.61;100.00;98604.34;1748193;79;22035;-87
2022/10/16 08:13:31;;;;;;;;;;;;;;;16.63;100.00;98605.53;1763386;80;26770;-87
2022/10/16 08:15:57;;;;;;;;;;;;;;;16.69;100.00;98604.97;1754023;80;24566;-87
2022/10/16 08:18:23;;;;;;;;;;;;;;;16.75;100.00;98605.70;1758222;80;20340;-88
2022/10/16 08:20:51;;;;;;;;;;;;;;;16.80;100.00;98606.11;1756121;80;20253;-87
2022/10/16 08:23:17;;;;;;;;;;;;;;;16.88;100.00;98612.86;1762403;80;22260;-85
2022/10/16 08:25:43;;;;;;;;;;;;;;;16.93;100.00;98611.94;1759820;80;21275;-88
2022/10/16 08:28:10;;;;;;;;;;;;;;;16.99;100.00;98604.77;1781246;79;20246;-87
2022/10/16 08:30:37;;;;;;;;;;;;;;;17.04;100.00;98606.48;1766986;80;20547;-87
2022/10/16 08:33:05;;;;;;;;;;;;;;;17.10;100.00;98602.44;1766888;79;24626;-85
2022/10/16 08:35:32;;;;;;;;;;;;;;;17.19;100.00;98607.34;1744846;80;22745;-84
2022/10/16 08:37:57;;;;;;;;;;;;;;;17.22;100.00;98608.39;1756812;80;20925;-84
2022/10/16 08:40:32;;;;;;;;;;;;;;;17.24;100.00;98605.92;1754110;80;20842;-89
2022/10/16 08:43:00;;;;;;;;;;;;;;;17.24;100.00;98603.28;1770796;80;20270;-89
2022/10/16 08:45:27;;;;;;;;;;;;;;;17.26;100.00;98600.50;1762185;80;24537;-88
2022/10/16 08:48:11;;;;;;;;;;;;;;;17.25;100.00;98604.95;1779792;79;22088;-89
2022/10/16 08:50:38;;;;;;;;;;;;;;;17.24;100.00;98609.09;1766781;79;26055;-89
2022/10/16 08:53:06;;;;;;;;;;;;;;;17.24;100.00;98602.47;1785562;79;25739;-89
2022/10/16 08:55:34;;;;;;;;;;;;;;;17.27;100.00;98600.84;1777434;80;20256;-84
2022/10/16 08:58:00;;;;;;;;;;;;;;;17.32;100.00;98610.02;1774684;80;24516;-88
2022/10/16 09:00:27;;;;;;;;;;;;;;;17.37;100.00;98610.90;1769652;80;22748;-89
2022/10/16 09:02:55;;;;;;;;;;;;;;;17.39;100.00;98609.79;1770020;80;26039;-87
2022/10/16 09:05:26;;;;;;;;;;;;;;;17.44;100.00;98611.99;1758780;79;24503;-87
2022/10/16 09:08:12;;;;;;;;;;;;;;;17.50;100.00;98610.09;1747398;79;20365;-88
2022/10/16 09:10:56;;;;;;;;;;;;;;;17.56;100.00;98614.28;1661869;84;24772;-87
2022/10/16 09:13:30;;;;;;;;;;;;;;;17.68;100.00;98620.73;1711433;82;21955;-85
2022/10/16 09:15:58;;;;;;;;;;;;;;;17.79;100.00;98623.19;1714917;80;26044;-85
2022/10/16 09:18:32;;;;;;;;;;;;;;;17.84;100.00;98618.28;1741416;81;24494;-84
2022/10/16 09:20:59;;;;;;;;;;;;;;;17.90;100.00;98622.50;1784315;78;20306;-85
2022/10/16 09:23:26;;;;;;;;;;;;;;;17.97;100.00;98620.09;1793617;77;24680;-85
2022/10/16 09:25:53;;;;;;;;;;;;;;;18.04;100.00;98625.64;1789772;78;21544;-84
2022/10/16 09:28:20;;;;;;;;;;;;;;;18.10;100.00;98630.34;1784254;78;26020;-84
2022/10/16 09:30:48;;;;;;;;;;;;;;;18.15;100.00;98632.88;1784696;79;24511;-84
2022/10/16 09:33:14;;;;;;;;;;;;;;;18.21;100.00;98630.13;1783874;79;20695;-84
2022/10/16 09:35:42;;;;;;;;;;;;;;;18.25;100.00;98635.45;1786199;79;24683;-84
2022/10/16 09:38:11;;;;;;;;;;;;;;;18.30;100.00;98631.38;1784090;79;20253;-89
2022/10/16 09:40:38;;;;;;;;;;;;;;;18.38;100.00;98634.61;1785573;78;26144;-89
2022/10/16 09:43:09;;;;;;;;;;;;;;;18.43;100.00;98636.80;1786133;79;25380;-87
2022/10/16 09:45:35;;;;;;;;;;;;;;;18.45;100.00;98642.27;1782343;79;20155;-85
2022/10/16 09:48:03;;;;;;;;;;;;;;;18.48;100.00;98643.30;1781251;79;20810;-89
2022/10/16 09:50:35;;;;;;;;;;;;;;;18.51;100.00;98648.29;1785671;79;22625;-89
2022/10/16 09:53:05;;;;;;;;;;;;;;;18.56;100.00;98650.02;1783195;79;26139;-89
2022/10/16 09:55:31;;;;;;;;;;;;;;;18.57;100.00;98645.56;1788520;79;24589;-90
2022/10/16 09:57:57;;;;;;;;;;;;;;;18.60;100.00;98647.40;1785777;79;20273;-89
2022/10/16 10:00:25;;;;;;;;;;;;;;;18.61;100.00;98653.05;1784282;79;20266;-90
2022/10/16 10:02:52;;;;;;;;;;;;;;;18.63;100.00;98641.81;1790300;78;21960;-89
2022/10/16 10:05:21;;;;;;;;;;;;;;;18.62;100.00;98655.21;1785682;79;25594;-89
2022/10/16 10:07:58;;;;;;;;;;;;;;;18.62;100.00;98654.72;1790963;79;24394;-89
2022/10/16 10:10:26;;;;;;;;;;;;;;;18.64;100.00;98655.91;1788335;79;20231;-90
2022/10/16 10:12:53;;;;;;;;;;;;;;;18.65;100.00;98655.76;1801078;77;24591;-89
2022/10/16 10:15:21;;;;;;;;;;;;;;;18.66;100.00;98656.56;1828621;77;22171;-89
2022/10/16 10:17:49;;;;;;;;;;;;;;;18.66;100.00;98653.91;1823044;77;26666;-89
2022/10/16 10:20:17;;;;;;;;;;;;;;;18.72;100.00;98660.77;1819726;77;24402;-90
2022/10/16 10:22:45;;;;;;;;;;;;;;;18.77;100.00;98660.30;1822132;77;20581;-89
2022/10/16 10:25:13;;;;;;;;;;;;;;;18.82;100.00;98655.89;1818526;77;24546;-90
2022/10/16 10:27:41;;;;;;;;;;;;;;;18.87;100.00;98658.92;1825199;77;22159;-90
2022/10/16 10:30:27;;;;;;;;;;;;;;;18.92;100.00;98660.13;1822266;77;26752;-89
2022/10/16 10:33:13;;;;;;;;;;;;;;;18.99;100.00;98658.98;1818976;77;24660;-89
2022/10/16 10:35:50;;;;;;;;;;;;;;;19.06;100.00;98657.39;1823154;77;20283;-88
2022/10/16 10:38:18;;;;;;;;;;;;;;;19.14;100.00;98662.27;1826395;77;24677;-89
2022/10/16 10:41:02;;;;;;;;;;;;;;;19.21;100.00;98665.11;1821824;77;22282;-89
2022/10/16 10:43:33;;;;;;;;;;;;;;;19.26;100.00;98662.83;1823781;77;25904;-89
2022/10/16 10:46:02;;;;;;;;;;;;;;;19.31;100.00;98667.69;1827886;77;25230;-89
2022/10/16 10:48:48;;;;;;;;;;;;;;;19.35;100.00;98668.54;1823166;77;20168;-88
2022/10/16 10:51:25;;;;;;;;;;;;;;;19.37;100.00;98673.17;1827362;77;24619;-89
2022/10/16 10:53:53;;;;;;;;;;;;;;;19.39;100.00;98671.70;1822709;77;22372;-88
2022/10/16 10:56:38;;;;;;;;;;;;;;;19.41;100.00;98665.75;1783038;77;26784;-88
2022/10/16 10:59:17;;;;;;;;;;;;;;;19.44;100.00;98654.81;1764888;79;24430;-87
2022/10/16 11:01:48;;;;;;;;;;;;;;;19.49;100.00;98661.84;1772858;79;20331;-87
2022/10/16 11:04:32;;;;;;;;;;;;;;;19.52;100.00;98665.03;1771013;79;24601;-87
2022/10/16 11:07:06;;;;;;;;;;;;;;;19.60;100.00;98658.41;1764198;79;22062;-87
2022/10/16 11:09:43;;;;;;;;;;;;;;;19.66;100.00;98659.61;1764877;80;26134;-87
2022/10/16 11:12:13;;;;;;;;;;;;;;;19.70;100.00;98660.11;1773044;79;24594;-87
2022/10/16 11:14:59;;;;;;;;;;;;;;;19.70;100.00;98660.11;1779074;79;20203;-87
2022/10/16 11:17:27;;;;;;;;;;;;;;;19.73;100.00;98667.77;1744310;81;24688;-87
2022/10/16 11:20:02;;;;;;;;;;;;;;;19.80;100.00;98674.13;1743908;81;22160;-89
2022/10/16 11:22:41;;;;;;;;;;;;;;;19.86;100.00;98677.44;1742051;81;26794;-88
2022/10/16 11:25:24;;;;;;;;;;;;;;;19.94;100.00;98682.31;1764839;79;24730;-88
2022/10/16 11:27:52;;;;;;;;;;;;;;;19.97;100.00;98681.98;1791089;77;20239;-89
2022/10/16 11:33:20;;;;;;;;;;;;;;;20.01;100.00;98677.20;1745685;80;20151;-86
2022/10/16 11:35:53;;;;;;;;;;;;;;;20.03;100.00;98676.52;1750993;80;26039;-88
2022/10/16 11:38:24;;;;;;;;;;;;;;;20.05;100.00;98673.22;1723068;82;24499;-87
2022/10/16 11:40:52;;;;;;;;;;;;;;;20.06;100.00;98673.55;1747948;80;20397;-84
2022/10/16 11:43:19;;;;;;;;;;;;;;;20.08;100.00;98672.88;1722877;82;24613;-84
2022/10/16 11:45:47;;;;;;;;;;;;;;;20.08;100.00;98668.89;1721973;81;22097;-86
2022/10/16 11:48:16;;;;;;;;;;;;;;;20.05;100.00;98668.73;1719370;83;26124;-87
2022/10/16 11:50:43;;;;;;;;;;;;;;;20.08;100.00;98658.76;1714215;82;24728;-86
2022/10/16 11:53:20;;;;;;;;;;;;;;;20.08;100.00;98656.94;1744999;80;20509;-84
2022/10/16 11:55:46;;;;;;;;;;;;;;;20.05;100.00;98658.60;1755641;80;25482;-86
2022/10/16 11:58:14;;;;;;;;;;;;;;;20.02;100.00;98655.75;1750901;80;21984;-89
2022/10/16 12:00:42;;;;;;;;;;;;;;;19.98;100.00;98663.72;1752842;80;26053;-84
2022/10/16 12:03:13;;;;;;;;;;;;;;;19.92;100.00;98663.03;1750774;80;24558;-83
2022/10/16 12:05:43;;;;;;;;;;;;;;;19.92;100.00;98667.51;1756357;80;20239;-88
2022/10/16 12:08:11;;;;;;;;;;;;;;;19.91;100.00;98665.34;1751090;80;24758;-89
2022/10/16 12:10:38;;;;;;;;;;;;;;;19.90;100.00;98676.98;1755807;80;22872;-86
2022/10/16 12:13:24;;;;;;;;;;;;;;;19.87;100.00;98671.14;1745423;80;21476;-84
2022/10/16 12:15:50;;;;;;;;;;;;;;;19.79;100.00;98670.63;1750048;80;24406;-86
2022/10/16 12:18:21;;;;;;;;;;;;;;;19.75;100.00;98669.27;1746221;80;20226;-88
2022/10/16 12:20:49;;;;;;;;;;;;;;;19.72;100.00;98679.38;1752860;79;24545;-88
2022/10/16 12:23:21;;;;;;;;;;;;;;;19.65;100.00;98675.19;1750401;80;21946;-84
2022/10/16 12:25:50;;;;;;;;;;;;;;;19.63;100.00;98670.06;1757850;80;26670;-87
2022/10/16 12:28:21;;;;;;;;;;;;;;;19.69;100.00;98677.06;1751841;80;24585;-87
2022/10/16 12:30:54;;;;;;;;;;;;;;;19.71;100.00;98672.40;1753871;80;20196;-87
2022/10/16 12:33:22;;;;;;;;;;;;;;;19.77;100.00;98677.08;1720629;82;25355;-89
2022/10/16 12:35:48;;;;;;;;;;;;;;;19.79;100.00;98684.41;1711325;83;22011;-87
2022/10/16 12:38:22;;;;;;;;;;;;;;;19.78;100.00;98682.73;1692756;83;25939;-88
2022/10/16 12:40:49;;;;;;;;;;;;;;;19.72;100.00;98682.04;1694600;83;24709;-89
2022/10/16 12:43:23;;;;;;;;;;;;;;;19.70;100.00;98686.66;1686203;81;20228;-88
2022/10/16 12:45:51;;;;;;;;;;;;;;;19.67;100.00;98692.30;1693492;83;24631;-86
2022/10/16 12:48:21;;;;;;;;;;;;;;;19.63;100.00;98686.48;1693068;83;21953;-86
2022/10/16 12:50:48;;;;;;;;;;;;;;;19.57;100.00;98692.42;1695947;83;25988;-86